createdAt,value
2019-02-27T00:00:30.127Z,133.70
2019-02-27T00:01:30.101Z,135.30
2019-02-27T00:02:30.110Z,128.70
2019-02-27T00:03:30.086Z,134.30
2019-02-27T00:04:30.077Z,133.60
2019-02-27T00:05:30.112Z,132.60
2019-02-27T00:06:30.049Z,130.50
2019-02-27T00:07:30.057Z,130.30
2019-02-27T00:08:30.032Z,136.20
2019-02-27T00:09:32.670Z,130.60
2019-02-27T00:10:30.012Z,132.00
2019-02-27T00:11:29.993Z,129.60
2019-02-27T00:12:30.003Z,122.90
2019-02-27T00:13:29.969Z,127.70
2019-02-27T00:14:31.292Z,125.50
2019-02-27T00:15:29.949Z,127.60
2019-02-27T00:16:29.937Z,130.80
2019-02-27T00:17:29.947Z,130.00
2019-02-27T00:18:29.927Z,139.10
2019-02-27T00:19:31.491Z,125.40
2019-02-27T00:20:29.890Z,113.90
2019-02-27T00:21:29.878Z,122.90
2019-02-27T00:22:29.895Z,116.40
2019-02-27T00:23:29.861Z,118.90
2019-02-27T00:24:30.527Z,117.60
2019-02-27T00:25:29.837Z,108.70
2019-02-27T00:26:29.821Z,114.70
2019-02-27T00:27:29.858Z,113.80
2019-02-27T00:28:29.801Z,112.80
2019-02-27T00:29:29.799Z,117.00
2019-02-27T00:30:29.781Z,113.10
2019-02-27T00:31:29.770Z,115.70
2019-02-27T00:32:29.759Z,116.50
2019-02-27T00:33:29.768Z,110.20
2019-02-27T00:34:32.826Z,116.90
2019-02-27T00:35:29.725Z,118.20
2019-02-27T00:36:29.708Z,117.70
2019-02-27T00:37:29.704Z,118.10
2019-02-27T00:38:29.833Z,112.00
2019-02-27T00:39:31.309Z,115.50
2019-02-27T00:40:29.669Z,114.80
2019-02-27T00:41:29.649Z,114.90
2019-02-27T00:42:33.553Z,117.50
2019-02-27T00:43:29.659Z,114.20
2019-02-27T00:44:33.974Z,118.20
2019-02-27T00:45:30.612Z,114.50
2019-02-27T00:46:29.596Z,111.10
2019-02-27T00:47:29.583Z,116.40
2019-02-27T00:48:29.598Z,116.20
2019-02-27T00:49:29.852Z,113.00
2019-02-27T00:50:29.550Z,116.60
2019-02-27T00:51:29.539Z,117.90
2019-02-27T00:52:29.535Z,114.80
2019-02-27T00:53:29.536Z,113.30
2019-02-27T00:54:31.456Z,117.90
2019-02-27T00:55:29.498Z,116.80
2019-02-27T00:56:29.488Z,113.90
2019-02-27T00:57:29.474Z,112.40
2019-02-27T00:58:29.482Z,114.50
2019-02-27T00:59:32.943Z,115.40
2019-02-27T01:00:29.441Z,114.30
2019-02-27T01:01:29.435Z,111.90
2019-02-27T01:02:29.426Z,111.50
2019-02-27T01:03:29.445Z,115.40
2019-02-27T01:04:29.394Z,117.80
2019-02-27T01:05:29.386Z,110.40
2019-02-27T01:06:29.377Z,118.90
2019-02-27T01:07:29.367Z,114.90
2019-02-27T01:08:29.362Z,121.50
2019-02-27T01:09:29.374Z,125.70
2019-02-27T01:10:29.327Z,118.80
2019-02-27T01:11:29.321Z,122.70
2019-02-27T01:12:29.307Z,119.50
2019-02-27T01:13:31.266Z,118.40
2019-02-27T01:14:29.304Z,116.40
2019-02-27T01:15:29.277Z,119.80
2019-02-27T01:16:29.262Z,122.20
2019-02-27T01:17:29.250Z,113.30
2019-02-27T01:18:30.761Z,114.30
2019-02-27T01:19:29.245Z,125.20
2019-02-27T01:20:29.221Z,121.60
2019-02-27T01:21:29.206Z,115.50
2019-02-27T01:22:29.194Z,117.90
2019-02-27T01:23:29.193Z,122.20
2019-02-27T01:24:29.191Z,121.20
2019-02-27T01:25:29.237Z,123.10
2019-02-27T01:26:30.831Z,131.30
2019-02-27T01:27:29.140Z,127.20
2019-02-27T01:28:29.129Z,126.80
2019-02-27T01:29:29.171Z,119.30
2019-02-27T01:30:29.112Z,124.00
2019-02-27T01:31:29.094Z,124.80
2019-02-27T01:32:31.149Z,127.00
2019-02-27T01:33:29.090Z,120.20
2019-02-27T01:34:29.084Z,125.40
2019-02-27T01:35:29.050Z,130.50
2019-02-27T01:36:29.037Z,128.60
2019-02-27T01:37:31.659Z,130.80
2019-02-27T01:38:29.021Z,127.70
2019-02-27T01:39:29.076Z,127.30
2019-02-27T01:40:28.996Z,129.20
2019-02-27T01:41:29.023Z,122.00
2019-02-27T01:42:32.044Z,130.40
2019-02-27T01:43:28.958Z,125.50
2019-02-27T01:44:28.995Z,133.20
2019-02-27T01:45:28.960Z,125.00
2019-02-27T01:46:28.924Z,130.90
2019-02-27T01:47:28.919Z,129.00
2019-02-27T01:48:29.644Z,128.40
2019-02-27T01:49:28.902Z,123.10
2019-02-27T01:50:28.904Z,131.90
2019-02-27T01:51:28.953Z,127.30
2019-02-27T01:52:28.858Z,129.20
2019-02-27T01:53:28.852Z,127.40
2019-02-27T01:54:28.833Z,128.20
2019-02-27T01:55:28.857Z,135.30
2019-02-27T01:56:29.623Z,132.10
2019-02-27T01:57:28.805Z,132.90
2019-02-27T01:58:28.793Z,134.10
2019-02-27T01:59:28.789Z,132.60
2019-02-27T02:00:28.797Z,141.30
2019-02-27T02:01:30.231Z,131.00
2019-02-27T02:02:28.743Z,139.50
2019-02-27T02:03:28.742Z,133.50
2019-02-27T02:04:28.721Z,134.00
2019-02-27T02:05:28.737Z,134.40
2019-02-27T02:06:31.958Z,137.80
2019-02-27T02:07:28.778Z,136.00
2019-02-27T02:08:28.681Z,132.30
2019-02-27T02:09:28.666Z,135.60
2019-02-27T02:10:28.887Z,132.90
2019-02-27T02:11:28.651Z,128.80
2019-02-27T02:12:28.631Z,134.30
2019-02-27T02:13:28.701Z,132.90
2019-02-27T02:14:28.610Z,129.00
2019-02-27T02:15:28.621Z,128.80
2019-02-27T02:16:28.596Z,129.40
2019-02-27T02:17:28.581Z,128.30
2019-02-27T02:18:28.565Z,121.80
2019-02-27T02:19:28.557Z,131.40
2019-02-27T02:20:28.565Z,129.60
2019-02-27T02:21:28.532Z,126.10
2019-02-27T02:22:28.538Z,124.90
2019-02-27T02:23:28.509Z,127.00
2019-02-27T02:24:28.500Z,128.60
2019-02-27T02:25:28.669Z,129.00
2019-02-27T02:26:28.480Z,133.40
2019-02-27T02:27:28.470Z,128.80
2019-02-27T02:28:28.457Z,124.90
2019-02-27T02:29:28.455Z,125.80
2019-02-27T02:30:29.753Z,120.40
2019-02-27T02:31:28.419Z,119.50
2019-02-27T02:32:28.414Z,121.80
2019-02-27T02:33:30.320Z,124.00
2019-02-27T02:34:28.398Z,130.90
2019-02-27T02:35:28.377Z,122.30
2019-02-27T02:36:28.394Z,123.20
2019-02-27T02:37:28.363Z,122.90
2019-02-27T02:38:28.341Z,127.40
2019-02-27T02:39:28.393Z,120.60
2019-02-27T02:40:31.111Z,126.50
2019-02-27T02:41:28.332Z,123.20
2019-02-27T02:42:28.300Z,120.30
2019-02-27T02:43:28.289Z,120.20
2019-02-27T02:44:28.275Z,123.70
2019-02-27T02:45:32.817Z,119.40
2019-02-27T02:46:29.271Z,116.50
2019-02-27T02:47:28.246Z,118.40
2019-02-27T02:48:31.090Z,120.00
2019-02-27T02:49:28.225Z,116.40
2019-02-27T02:50:28.209Z,114.40
2019-02-27T02:51:29.892Z,114.80
2019-02-27T02:52:28.185Z,118.70
2019-02-27T02:53:28.175Z,122.10
2019-02-27T02:54:28.165Z,115.80
2019-02-27T02:55:28.155Z,117.40
2019-02-27T02:56:28.187Z,116.50
2019-02-27T02:57:28.141Z,125.40
2019-02-27T02:58:28.120Z,118.70
2019-02-27T02:59:28.106Z,118.00
2019-02-27T03:00:28.092Z,119.00
2019-02-27T03:01:28.103Z,120.20
2019-02-27T03:02:29.830Z,115.00
2019-02-27T03:03:28.064Z,118.20
2019-02-27T03:04:28.052Z,116.20
2019-02-27T03:05:28.039Z,116.50
2019-02-27T03:06:34.642Z,113.20
2019-02-27T03:07:29.026Z,116.00
2019-02-27T03:08:28.015Z,111.30
2019-02-27T03:09:30.615Z,116.70
2019-02-27T03:10:27.985Z,123.50
2019-02-27T03:11:28.018Z,119.30
2019-02-27T03:12:30.974Z,115.60
2019-02-27T03:13:27.952Z,120.00
2019-02-27T03:14:27.949Z,117.50
2019-02-27T03:15:28.972Z,115.20
2019-02-27T03:16:27.914Z,112.20
2019-02-27T03:17:27.941Z,112.00
2019-02-27T03:18:29.674Z,106.50
2019-02-27T03:19:27.948Z,109.90
2019-02-27T03:20:27.885Z,111.80
2019-02-27T03:21:28.922Z,117.20
2019-02-27T03:22:27.867Z,112.70
2019-02-27T03:23:27.840Z,111.10
2019-02-27T03:24:28.945Z,110.50
2019-02-27T03:25:27.822Z,109.70
2019-02-27T03:26:27.811Z,109.50
2019-02-27T03:27:30.636Z,110.00
2019-02-27T03:28:27.785Z,114.60
2019-02-27T03:29:27.773Z,113.30
2019-02-27T03:30:34.160Z,116.30
2019-02-27T03:31:28.748Z,112.20
2019-02-27T03:32:27.779Z,113.00
2019-02-27T03:33:27.783Z,112.00
2019-02-27T03:34:27.720Z,114.10
2019-02-27T03:35:29.300Z,112.00
2019-02-27T03:36:27.695Z,110.30
2019-02-27T03:37:27.707Z,115.40
2019-02-27T03:38:27.670Z,113.20
2019-02-27T03:39:27.665Z,116.60
2019-02-27T03:40:27.647Z,119.90
2019-02-27T03:41:27.635Z,114.60
2019-02-27T03:42:30.827Z,111.70
2019-02-27T03:43:28.619Z,117.70
2019-02-27T03:44:27.606Z,121.00
2019-02-27T03:45:30.914Z,118.10
2019-02-27T03:46:27.583Z,128.70
2019-02-27T03:47:27.604Z,125.20
2019-02-27T03:48:28.411Z,124.30
2019-02-27T03:49:27.548Z,125.40
2019-02-27T03:50:27.542Z,127.30
2019-02-27T03:51:27.524Z,120.80
2019-02-27T03:52:27.531Z,123.30
2019-02-27T03:53:27.518Z,124.50
2019-02-27T03:54:27.496Z,115.20
2019-02-27T03:55:31.849Z,117.60
2019-02-27T03:56:28.464Z,114.40
2019-02-27T03:57:27.475Z,108.60
2019-02-27T03:58:30.691Z,103.60
2019-02-27T03:59:27.448Z,106.30
2019-02-27T04:00:27.439Z,99.80
2019-02-27T04:01:30.469Z,95.60
2019-02-27T04:02:27.421Z,88.60
2019-02-27T04:03:27.413Z,83.30
2019-02-27T04:04:30.603Z,88.80
2019-02-27T04:05:27.372Z,86.10
2019-02-27T04:06:27.359Z,82.90
2019-02-27T04:07:31.550Z,81.30
2019-02-27T04:08:28.352Z,77.30
2019-02-27T04:09:27.345Z,73.30
2019-02-27T04:10:31.020Z,73.70
2019-02-27T04:11:27.313Z,68.60
2019-02-27T04:12:27.314Z,68.70
2019-02-27T04:13:27.916Z,68.20
2019-02-27T04:14:27.267Z,70.50
2019-02-27T04:15:27.264Z,66.50
2019-02-27T04:16:29.422Z,64.20
2019-02-27T04:17:27.259Z,72.50
2019-02-27T04:18:28.393Z,68.40
2019-02-27T04:19:27.216Z,70.30
2019-02-27T04:20:27.201Z,67.80
2019-02-27T04:21:27.192Z,75.90
2019-02-27T04:22:27.207Z,73.50
2019-02-27T04:23:27.226Z,69.80
2019-02-27T04:24:27.161Z,74.10
2019-02-27T04:25:31.074Z,69.60
2019-02-27T04:26:27.137Z,72.30
2019-02-27T04:27:27.145Z,69.20
2019-02-27T04:28:29.540Z,70.10
2019-02-27T04:29:27.107Z,67.00
2019-02-27T04:30:27.089Z,71.20
2019-02-27T04:31:30.521Z,68.30
2019-02-27T04:32:27.196Z,73.10
2019-02-27T04:33:27.073Z,72.60
2019-02-27T04:34:27.051Z,76.60
2019-02-27T04:35:27.038Z,73.00
2019-02-27T04:36:27.034Z,74.80
2019-02-27T04:37:27.027Z,69.90
2019-02-27T04:38:27.529Z,72.30
2019-02-27T04:39:27.163Z,74.50
2019-02-27T04:40:26.986Z,89.20
2019-02-27T04:41:26.964Z,77.70
2019-02-27T04:42:26.967Z,78.50
2019-02-27T04:43:26.959Z,79.70
2019-02-27T04:44:26.942Z,76.40
2019-02-27T04:45:26.921Z,71.10
2019-02-27T04:46:26.919Z,79.10
2019-02-27T04:47:29.231Z,76.60
2019-02-27T04:48:29.792Z,83.40
2019-02-27T04:49:26.875Z,81.20
2019-02-27T04:50:26.870Z,74.30
2019-02-27T04:51:26.857Z,70.40
2019-02-27T04:52:26.839Z,73.90
2019-02-27T04:53:31.614Z,71.60
2019-02-27T04:54:26.819Z,77.20
2019-02-27T04:55:26.809Z,70.40
2019-02-27T04:56:26.800Z,72.00
2019-02-27T04:57:26.795Z,67.80
2019-02-27T04:58:26.804Z,68.00
2019-02-27T04:59:26.762Z,69.60
2019-02-27T05:00:26.902Z,67.70
2019-02-27T05:01:26.746Z,70.60
2019-02-27T05:02:26.738Z,68.30
2019-02-27T05:03:28.506Z,67.10
2019-02-27T05:04:26.714Z,66.20
2019-02-27T05:05:26.694Z,65.90
2019-02-27T05:06:26.685Z,73.70
2019-02-27T05:07:26.679Z,72.50
2019-02-27T05:08:27.718Z,67.40
2019-02-27T05:09:26.659Z,79.20
2019-02-27T05:10:26.642Z,69.00
2019-02-27T05:11:27.068Z,71.30
2019-02-27T05:12:26.633Z,70.30
2019-02-27T05:13:26.630Z,67.00
2019-02-27T05:14:27.346Z,67.20
2019-02-27T05:15:26.599Z,65.30
2019-02-27T05:16:26.571Z,64.60
2019-02-27T05:17:26.566Z,68.70
2019-02-27T05:18:29.292Z,65.30
2019-02-27T05:19:26.543Z,64.40
2019-02-27T05:20:26.535Z,63.20
2019-02-27T05:21:26.521Z,64.70
2019-02-27T05:22:26.784Z,62.50
2019-02-27T05:23:26.528Z,64.20
2019-02-27T05:24:26.485Z,64.90
2019-02-27T05:25:26.476Z,68.50
2019-02-27T05:26:27.260Z,71.70
2019-02-27T05:27:27.420Z,68.40
2019-02-27T05:28:27.166Z,64.70
2019-02-27T05:29:26.490Z,65.30
2019-02-27T05:30:26.426Z,69.00
2019-02-27T05:31:26.411Z,67.00
2019-02-27T05:32:28.330Z,64.50
2019-02-27T05:33:26.384Z,67.00
2019-02-27T05:34:26.390Z,66.00
2019-02-27T05:35:26.363Z,64.70
2019-02-27T05:36:29.042Z,68.10
2019-02-27T05:37:27.346Z,62.60
2019-02-27T05:38:26.344Z,64.10
2019-02-27T05:39:26.347Z,56.90
2019-02-27T05:40:26.666Z,58.60
2019-02-27T05:41:26.292Z,58.20
2019-02-27T05:42:26.285Z,63.70
2019-02-27T05:43:26.273Z,58.50
2019-02-27T05:44:26.285Z,56.40
2019-02-27T05:45:30.348Z,54.50
2019-02-27T05:46:26.241Z,58.80
2019-02-27T05:47:26.231Z,53.90
2019-02-27T05:48:26.221Z,56.40
2019-02-27T05:49:27.396Z,54.70
2019-02-27T05:50:26.198Z,56.40
2019-02-27T05:51:26.187Z,57.20
2019-02-27T05:52:26.179Z,54.30
2019-02-27T05:53:26.176Z,57.50
2019-02-27T05:54:26.191Z,59.40
2019-02-27T05:55:26.147Z,59.10
2019-02-27T05:56:26.143Z,53.90
2019-02-27T05:57:26.115Z,56.70
2019-02-27T05:58:26.107Z,57.20
2019-02-27T05:59:29.157Z,54.60
2019-02-27T06:00:26.108Z,56.70
2019-02-27T06:01:26.079Z,56.60
2019-02-27T06:02:26.067Z,54.40
2019-02-27T06:03:26.051Z,53.10
2019-02-27T06:04:26.082Z,52.50
2019-02-27T06:05:26.030Z,51.60
2019-02-27T06:06:26.024Z,55.80
2019-02-27T06:07:26.023Z,51.00
2019-02-27T06:08:25.998Z,54.10
2019-02-27T06:09:26.035Z,49.50
2019-02-27T06:10:26.000Z,51.10
2019-02-27T06:11:27.096Z,53.80
2019-02-27T06:12:25.955Z,50.80
2019-02-27T06:13:26.005Z,50.40
2019-02-27T06:14:25.927Z,51.40
2019-02-27T06:15:28.408Z,51.30
2019-02-27T06:16:25.914Z,50.20
2019-02-27T06:17:25.967Z,51.40
2019-02-27T06:18:25.883Z,51.80
2019-02-27T06:19:25.871Z,48.20
2019-02-27T06:20:25.877Z,52.40
2019-02-27T06:21:25.849Z,51.10
2019-02-27T06:22:27.271Z,52.50
2019-02-27T06:23:25.834Z,51.70
2019-02-27T06:24:25.829Z,50.60
2019-02-27T06:25:25.834Z,49.20
2019-02-27T06:26:25.795Z,51.70
2019-02-27T06:27:25.777Z,51.10
2019-02-27T06:28:25.903Z,53.70
2019-02-27T06:29:25.771Z,52.00
2019-02-27T06:30:27.898Z,53.30
2019-02-27T06:31:25.741Z,52.60
2019-02-27T06:32:25.726Z,53.30
2019-02-27T06:33:25.715Z,52.00
2019-02-27T06:34:25.698Z,53.80
2019-02-27T06:35:25.704Z,54.00
2019-02-27T06:36:25.682Z,57.20
2019-02-27T06:37:25.668Z,56.40
2019-02-27T06:38:25.963Z,57.40
2019-02-27T06:39:25.660Z,53.40
2019-02-27T06:40:25.662Z,55.70
2019-02-27T06:41:25.642Z,54.90
2019-02-27T06:42:25.765Z,53.90
2019-02-27T06:43:27.385Z,56.30
2019-02-27T06:44:25.589Z,55.10
2019-02-27T06:45:25.621Z,58.80
2019-02-27T06:46:25.603Z,53.30
2019-02-27T06:47:25.559Z,52.10
2019-02-27T06:48:25.553Z,57.40
2019-02-27T06:49:25.536Z,53.60
2019-02-27T06:50:26.120Z,56.30
2019-02-27T06:51:25.539Z,52.50
2019-02-27T06:52:25.509Z,56.50
2019-02-27T06:53:25.495Z,57.00
2019-02-27T06:54:25.490Z,57.60
2019-02-27T06:55:27.983Z,58.10
2019-02-27T06:56:25.477Z,65.90
2019-02-27T06:57:26.833Z,63.00
2019-02-27T06:58:25.443Z,63.70
2019-02-27T06:59:25.744Z,61.30
2019-02-27T07:00:25.419Z,59.10
2019-02-27T07:01:25.417Z,58.50
2019-02-27T07:02:25.407Z,63.80
2019-02-27T07:03:29.227Z,58.80
2019-02-27T07:04:26.871Z,60.70
2019-02-27T07:05:25.360Z,60.20
2019-02-27T07:06:25.362Z,64.30
2019-02-27T07:07:25.333Z,67.80
2019-02-27T07:08:25.323Z,61.50
2019-02-27T07:09:25.319Z,64.10
2019-02-27T07:10:25.301Z,65.10
2019-02-27T07:11:25.305Z,61.50
2019-02-27T07:12:25.281Z,65.20
2019-02-27T07:13:26.758Z,61.00
2019-02-27T07:14:25.257Z,59.10
2019-02-27T07:15:25.247Z,65.80
2019-02-27T07:16:25.251Z,63.10
2019-02-27T07:17:25.225Z,60.70
2019-02-27T07:18:25.207Z,59.00
2019-02-27T07:19:25.219Z,59.30
2019-02-27T07:20:25.378Z,58.80
2019-02-27T07:21:25.199Z,61.80
2019-02-27T07:22:25.163Z,62.10
2019-02-27T07:23:25.155Z,61.30
2019-02-27T07:24:25.144Z,62.10
2019-02-27T07:25:25.137Z,60.20
2019-02-27T07:26:25.154Z,57.60
2019-02-27T07:27:25.124Z,61.40
2019-02-27T07:28:25.098Z,58.80
2019-02-27T07:29:27.468Z,64.40
2019-02-27T07:30:25.076Z,60.80
2019-02-27T07:31:25.086Z,64.30
2019-02-27T07:32:25.083Z,61.40
2019-02-27T07:33:25.037Z,60.20
2019-02-27T07:34:25.044Z,63.50
2019-02-27T07:35:26.318Z,61.00
2019-02-27T07:36:25.007Z,62.40
2019-02-27T07:37:25.031Z,61.10
2019-02-27T07:38:25.631Z,62.90
2019-02-27T07:39:24.976Z,62.50
2019-02-27T07:40:24.981Z,60.20
2019-02-27T07:41:24.983Z,63.00
2019-02-27T07:42:24.958Z,60.30
2019-02-27T07:43:24.935Z,58.70
2019-02-27T07:44:24.925Z,64.80
2019-02-27T07:45:25.041Z,60.60
2019-02-27T07:46:24.897Z,61.70
2019-02-27T07:47:24.905Z,60.30
2019-02-27T07:48:25.027Z,64.20
2019-02-27T07:49:24.869Z,60.40
2019-02-27T07:50:24.876Z,63.40
2019-02-27T07:51:24.846Z,61.30
2019-02-27T07:52:24.857Z,63.70
2019-02-27T07:53:25.648Z,59.80
2019-02-27T07:54:28.769Z,56.90
2019-02-27T07:55:28.237Z,60.40
2019-02-27T07:56:24.783Z,61.50
2019-02-27T07:57:24.791Z,59.00
2019-02-27T07:58:24.768Z,57.80
2019-02-27T07:59:24.759Z,60.10
2019-02-27T08:00:26.335Z,58.40
2019-02-27T08:01:24.742Z,56.30
2019-02-27T08:02:24.733Z,57.90
2019-02-27T08:03:24.704Z,60.10
2019-02-27T08:04:24.699Z,58.40
2019-02-27T08:05:27.890Z,60.20
2019-02-27T08:06:24.677Z,62.20
2019-02-27T08:07:24.690Z,57.50
2019-02-27T08:08:24.655Z,60.80
2019-02-27T08:09:24.645Z,56.00
2019-02-27T08:10:24.631Z,57.50
2019-02-27T08:11:26.441Z,55.70
2019-02-27T08:12:24.605Z,57.00
2019-02-27T08:13:27.110Z,56.20
2019-02-27T08:14:25.594Z,57.50
2019-02-27T08:15:25.490Z,55.20
2019-02-27T08:16:24.567Z,58.40
2019-02-27T08:17:24.552Z,61.20
2019-02-27T08:18:30.098Z,57.90
2019-02-27T08:19:25.542Z,63.50
2019-02-27T08:20:24.526Z,56.70
2019-02-27T08:21:24.506Z,57.30
2019-02-27T08:22:24.495Z,54.30
2019-02-27T08:23:24.510Z,55.50
2019-02-27T08:24:24.984Z,55.40
2019-02-27T08:25:24.465Z,53.80
2019-02-27T08:26:24.457Z,55.70
2019-02-27T08:27:24.453Z,52.70
2019-02-27T08:28:24.446Z,58.00
2019-02-27T08:29:24.415Z,53.00
2019-02-27T08:30:24.410Z,56.10
2019-02-27T08:31:28.003Z,53.30
2019-02-27T08:32:24.383Z,60.30
2019-02-27T08:33:24.401Z,53.20
2019-02-27T08:34:24.366Z,55.50
2019-02-27T08:35:24.349Z,58.90
2019-02-27T08:36:24.342Z,57.70
2019-02-27T08:37:24.324Z,56.60
2019-02-27T08:38:24.741Z,51.90
2019-02-27T08:39:24.303Z,53.90
2019-02-27T08:40:25.236Z,52.40
2019-02-27T08:41:24.290Z,53.50
2019-02-27T08:42:24.276Z,56.40
2019-02-27T08:43:24.286Z,52.40
2019-02-27T08:44:24.258Z,55.50
2019-02-27T08:45:27.013Z,52.80
2019-02-27T08:46:24.227Z,55.10
2019-02-27T08:47:24.220Z,52.70
2019-02-27T08:48:24.227Z,54.10
2019-02-27T08:49:25.024Z,50.50
2019-02-27T08:50:24.188Z,55.10
2019-02-27T08:51:24.175Z,55.00
2019-02-27T08:52:24.163Z,50.60
2019-02-27T08:53:26.803Z,52.00
2019-02-27T08:54:24.137Z,50.20
2019-02-27T08:55:24.126Z,52.20
2019-02-27T08:56:24.128Z,52.90
2019-02-27T08:57:24.110Z,49.00
2019-02-27T08:58:26.707Z,52.10
2019-02-27T08:59:25.087Z,49.40
2019-02-27T09:00:24.077Z,50.70
2019-02-27T09:01:24.062Z,50.80
2019-02-27T09:02:24.256Z,47.70
2019-02-27T09:03:24.038Z,51.40
2019-02-27T09:04:24.040Z,49.30
2019-02-27T09:05:24.025Z,48.70
2019-02-27T09:06:27.318Z,50.00
2019-02-27T09:07:23.988Z,48.90
2019-02-27T09:08:23.987Z,48.10
2019-02-27T09:09:23.992Z,48.00
2019-02-27T09:10:26.692Z,47.30
2019-02-27T09:11:24.952Z,49.90
2019-02-27T09:12:23.947Z,46.10
2019-02-27T09:13:23.936Z,49.50
2019-02-27T09:14:23.935Z,50.50
2019-02-27T09:15:23.903Z,47.00
2019-02-27T09:16:26.041Z,48.50
2019-02-27T09:17:27.129Z,48.60
2019-02-27T09:18:23.876Z,47.80
2019-02-27T09:19:23.876Z,46.90
2019-02-27T09:20:23.852Z,46.70
2019-02-27T09:21:24.912Z,50.00
2019-02-27T09:22:23.833Z,48.50
2019-02-27T09:23:23.815Z,47.80
2019-02-27T09:24:23.824Z,49.10
2019-02-27T09:25:24.851Z,49.40
2019-02-27T09:26:24.323Z,52.90
2019-02-27T09:27:23.771Z,48.30
2019-02-27T09:28:23.766Z,48.50
2019-02-27T09:29:23.779Z,49.20
2019-02-27T09:30:28.948Z,48.20
2019-02-27T09:31:24.720Z,46.40
2019-02-27T09:32:23.713Z,44.80
2019-02-27T09:33:23.703Z,47.40
2019-02-27T09:34:26.635Z,49.70
2019-02-27T09:35:23.684Z,47.90
2019-02-27T09:36:23.673Z,47.00
2019-02-27T09:37:23.667Z,44.60
2019-02-27T09:38:24.368Z,47.10
2019-02-27T09:39:23.655Z,48.90
2019-02-27T09:40:23.631Z,45.50
2019-02-27T09:41:23.609Z,45.80
2019-02-27T09:42:23.606Z,45.80
2019-02-27T09:43:24.106Z,49.00
2019-02-27T09:44:23.610Z,48.30
2019-02-27T09:45:23.573Z,45.40
2019-02-27T09:46:23.563Z,44.00
2019-02-27T09:47:25.766Z,45.40
2019-02-27T09:48:23.535Z,46.90
2019-02-27T09:49:23.547Z,47.30
2019-02-27T09:50:23.516Z,45.70
2019-02-27T09:51:23.510Z,45.30
2019-02-27T09:52:23.777Z,46.70
2019-02-27T09:53:23.477Z,44.90
2019-02-27T09:54:23.502Z,45.10
2019-02-27T09:55:23.461Z,53.10
2019-02-27T09:56:26.038Z,45.30
2019-02-27T09:57:24.434Z,47.40
2019-02-27T09:58:23.422Z,46.30
2019-02-27T09:59:23.434Z,45.30
2019-02-27T10:00:25.894Z,45.40
2019-02-27T10:01:23.388Z,45.20
2019-02-27T10:02:23.377Z,45.50
2019-02-27T10:03:23.386Z,41.50
2019-02-27T10:04:25.907Z,43.70
2019-02-27T10:05:23.345Z,44.50
2019-02-27T10:06:23.342Z,42.80
2019-02-27T10:07:23.323Z,41.90
2019-02-27T10:08:25.322Z,44.50
2019-02-27T10:09:23.329Z,42.20
2019-02-27T10:10:23.284Z,43.60
2019-02-27T10:11:23.273Z,45.00
2019-02-27T10:12:27.103Z,45.00
2019-02-27T10:13:23.259Z,42.30
2019-02-27T10:14:23.266Z,41.50
2019-02-27T10:15:25.225Z,42.30
2019-02-27T10:16:23.220Z,42.70
2019-02-27T10:17:23.207Z,43.80
2019-02-27T10:18:23.195Z,40.70
2019-02-27T10:19:23.208Z,42.80
2019-02-27T10:20:23.176Z,42.90
2019-02-27T10:21:23.165Z,39.80
2019-02-27T10:22:24.609Z,39.20
2019-02-27T10:23:23.148Z,38.20
2019-02-27T10:24:23.149Z,41.70
2019-02-27T10:25:23.119Z,41.60
2019-02-27T10:26:23.102Z,42.30
2019-02-27T10:27:25.489Z,39.90
2019-02-27T10:28:24.086Z,42.20
2019-02-27T10:29:23.095Z,39.80
2019-02-27T10:30:23.068Z,41.90
2019-02-27T10:31:25.992Z,39.90
2019-02-27T10:32:23.037Z,44.60
2019-02-27T10:33:23.039Z,40.40
2019-02-27T10:34:23.030Z,41.30
2019-02-27T10:35:23.135Z,37.50
2019-02-27T10:36:22.991Z,40.20
2019-02-27T10:37:23.124Z,36.90
2019-02-27T10:38:22.971Z,37.00
2019-02-27T10:39:22.954Z,38.90
2019-02-27T10:40:22.974Z,36.10
2019-02-27T10:41:22.935Z,39.30
2019-02-27T10:42:22.932Z,40.00
2019-02-27T10:43:22.909Z,34.10
2019-02-27T10:44:22.905Z,34.70
2019-02-27T10:45:22.913Z,31.10
2019-02-27T10:46:23.666Z,32.80
2019-02-27T10:47:22.871Z,30.50
2019-02-27T10:48:22.859Z,29.70
2019-02-27T10:49:22.845Z,29.90
2019-02-27T10:50:22.857Z,31.00
2019-02-27T10:51:22.827Z,33.20
2019-02-27T10:52:24.433Z,32.20
2019-02-27T10:53:26.858Z,32.40
2019-02-27T10:54:23.809Z,34.60
2019-02-27T10:55:22.777Z,32.00
2019-02-27T10:56:24.243Z,32.30
2019-02-27T10:57:22.800Z,30.90
2019-02-27T10:58:24.614Z,29.50
2019-02-27T10:59:23.061Z,29.10
2019-02-27T11:00:25.214Z,29.80
2019-02-27T11:01:22.729Z,31.90
2019-02-27T11:02:23.518Z,31.30
2019-02-27T11:03:23.651Z,29.60
2019-02-27T11:04:22.682Z,28.70
2019-02-27T11:05:22.673Z,28.90
2019-02-27T11:06:22.677Z,30.80
2019-02-27T11:07:22.646Z,28.40
2019-02-27T11:08:22.634Z,28.90
2019-02-27T11:09:22.618Z,28.10
2019-02-27T11:10:22.642Z,27.40
2019-02-27T11:11:22.600Z,28.30
2019-02-27T11:12:22.617Z,26.70
2019-02-27T11:13:22.577Z,26.20
2019-02-27T11:14:22.571Z,26.70
2019-02-27T11:15:22.552Z,28.20
2019-02-27T11:16:22.544Z,28.70
2019-02-27T11:17:22.551Z,29.70
2019-02-27T11:18:22.520Z,26.00
2019-02-27T11:19:22.516Z,27.80
2019-02-27T11:20:24.611Z,24.70
2019-02-27T11:21:22.490Z,24.30
2019-02-27T11:22:22.497Z,28.70
2019-02-27T11:23:22.471Z,27.20
2019-02-27T11:24:22.453Z,27.60
2019-02-27T11:25:23.215Z,26.20
2019-02-27T11:26:22.447Z,27.00
2019-02-27T11:27:22.444Z,26.10
2019-02-27T11:28:22.417Z,27.00
2019-02-27T11:29:23.900Z,30.10
2019-02-27T11:30:22.423Z,27.70
2019-02-27T11:31:22.383Z,25.60
2019-02-27T11:32:23.873Z,26.30
2019-02-27T11:33:26.011Z,29.80
2019-02-27T11:34:22.353Z,29.60
2019-02-27T11:35:25.163Z,27.60
2019-02-27T11:36:22.329Z,26.90
2019-02-27T11:37:22.331Z,27.80
2019-02-27T11:38:24.790Z,25.80
2019-02-27T11:39:22.295Z,26.40
2019-02-27T11:40:22.288Z,26.50
2019-02-27T11:41:22.280Z,26.10
2019-02-27T11:42:22.282Z,28.60
2019-02-27T11:43:22.254Z,27.40
2019-02-27T11:44:22.240Z,24.30
2019-02-27T11:45:24.680Z,23.90
2019-02-27T11:46:22.228Z,23.90
2019-02-27T11:47:22.238Z,25.50
2019-02-27T11:48:22.876Z,25.60
2019-02-27T11:49:22.191Z,24.40
2019-02-27T11:50:22.195Z,23.60
2019-02-27T11:51:22.164Z,23.50
2019-02-27T11:52:22.159Z,23.20
2019-02-27T11:53:22.175Z,22.60
2019-02-27T11:54:22.139Z,22.10
2019-02-27T11:55:24.279Z,23.50
2019-02-27T11:56:22.116Z,24.20
2019-02-27T11:57:22.107Z,20.10
2019-02-27T11:58:22.131Z,22.80
2019-02-27T11:59:22.085Z,25.80
2019-02-27T12:00:22.073Z,24.40
2019-02-27T12:01:22.766Z,23.10
2019-02-27T12:02:28.731Z,23.70
2019-02-27T12:03:23.079Z,24.10
2019-02-27T12:04:22.037Z,25.70
2019-02-27T12:05:22.019Z,23.30
2019-02-27T12:06:22.016Z,27.20
2019-02-27T12:07:22.007Z,24.30
2019-02-27T12:08:22.388Z,21.50
2019-02-27T12:09:21.980Z,20.80
2019-02-27T12:10:21.978Z,23.20
2019-02-27T12:11:21.959Z,22.30
2019-02-27T12:12:23.325Z,25.70
2019-02-27T12:13:21.962Z,22.00
2019-02-27T12:14:21.923Z,21.80
2019-02-27T12:15:21.929Z,22.40
2019-02-27T12:16:21.914Z,23.20
2019-02-27T12:17:23.234Z,24.10
2019-02-27T12:18:23.593Z,21.20
2019-02-27T12:19:21.896Z,22.90
2019-02-27T12:20:21.863Z,23.30
2019-02-27T12:21:21.856Z,20.20
2019-02-27T12:22:21.848Z,21.20
2019-02-27T12:23:21.832Z,20.30
2019-02-27T12:24:21.837Z,20.00
2019-02-27T12:25:26.896Z,21.10
2019-02-27T12:26:22.799Z,22.50
2019-02-27T12:27:42.963Z,21.60
2019-02-27T12:28:22.856Z,21.80
2019-02-27T12:29:24.191Z,22.90
2019-02-27T12:30:21.755Z,26.70
2019-02-27T12:31:21.745Z,22.20
2019-02-27T12:32:21.956Z,21.60
2019-02-27T12:33:21.724Z,22.50
2019-02-27T12:34:21.734Z,23.00
2019-02-27T12:35:21.703Z,25.90
2019-02-27T12:36:21.687Z,21.00
2019-02-27T12:37:28.209Z,24.10
2019-02-27T12:38:22.675Z,22.20
2019-02-27T12:39:21.682Z,22.20
2019-02-27T12:40:24.942Z,22.20
2019-02-27T12:41:21.637Z,21.40
2019-02-27T12:42:21.633Z,22.40
2019-02-27T12:43:21.618Z,21.80
2019-02-27T12:44:21.630Z,21.40